DAUO/ELU METAR and TAF weather

Enter ICAO airport designator
Station Type Date Time Source
DAUO METAR 2021/07/29 03:00 UTC NOAA

DAUO 290300Z 09007KT CAVOK 27/15 Q1013


Station Type Date Time Source
DAUO Decoded METAR 2021/07/29 03:00 UTC NOAA

El Oued, Algeria (DAUO) 33-30N 006-07E 63M
Jul 28, 2021 - 11:00 PM EDT / 2021.07.29 0300 UTC
Wind: from the E (090 degrees) at 8 MPH (7 KT):0
Visibility: greater than 7 mile(s):0
Temperature: 80 F (27 C)
Dew Point: 59 F (15 C)
Relative Humidity: 47%
Pressure (altimeter): 29.91 in. Hg (1013 hPa)
ob: DAUO 290300Z 09007KT CAVOK 27/15 Q1013
cycle: 3

Station Type Date Time Source
DAUO TAF 2021/07/18 12:00 UTC NOAA

TAF DAUO 181100Z 1812/1821 10010KT CAVOK

Example: see airport list